SARF/FMA METAR and TAF weather

Enter ICAO airport designator
Station Type Date Time Source
SARF METAR 2018/12/10 02:00 UTC NOAA

SARF 100200Z 05004KT CAVOK 26/21 Q1013


Station Type Date Time Source
SARF Decoded METAR 2018/12/10 02:00 UTC NOAA

Formosa Aerodrome, Argentina (SARF) 26-12S 058-14W 60M
Dec 09, 2018 - 09:00 PM EST / 2018.12.10 0200 UTC
Wind: from the NE (050 degrees) at 5 MPH (4 KT):0
Visibility: greater than 7 mile(s):0
Temperature: 78 F (26 C)
Dew Point: 69 F (21 C)
Relative Humidity: 73%
Pressure (altimeter): 29.91 in. Hg (1013 hPa)
ob: SARF 100200Z 05004KT CAVOK 26/21 Q1013
cycle: 2

Station Type Date Time Source
SARF TAF 2018/12/10 00:00 UTC NOAA

TAF COR SARF 092327Z 1000/1024 05010KT CAVOK TX36/1018Z TN20/1009Z


Example: see airport list